sensor_id;sensor_type;location;lat;lon;timestamp;temperature;humidity
33739;DHT22;20063;51.730;11.110;2023-07-30T00:02:15;18.20;99.90
33739;DHT22;20063;51.730;11.110;2023-07-30T00:04:41;18.20;99.90
33739;DHT22;20063;51.730;11.110;2023-07-30T00:07:07;18.20;99.90
33739;DHT22;20063;51.730;11.110;2023-07-30T00:09:32;18.30;99.90
33739;DHT22;20063;51.730;11.110;2023-07-30T00:11:58;18.20;99.90
33739;DHT22;20063;51.730;11.110;2023-07-30T00:14:23;18.30;99.90
33739;DHT22;20063;51.730;11.110;2023-07-30T00:16:49;18.20;99.90
33739;DHT22;20063;51.730;11.110;2023-07-30T00:19:14;18.20;99.90
33739;DHT22;20063;51.730;11.110;2023-07-30T00:21:40;18.30;99.90
33739;DHT22;20063;51.730;11.110;2023-07-30T00:24:09;18.30;99.90
33739;DHT22;20063;51.730;11.110;2023-07-30T00:26:34;18.30;99.90
33739;DHT22;20063;51.730;11.110;2023-07-30T00:29:00;18.20;99.90
33739;DHT22;20063;51.730;11.110;2023-07-30T00:31:25;18.30;99.90
33739;DHT22;20063;51.730;11.110;2023-07-30T00:33:51;18.20;99.90
33739;DHT22;20063;51.730;11.110;2023-07-30T00:36:16;18.20;99.90
33739;DHT22;20063;51.730;11.110;2023-07-30T00:38:42;18.20;99.90
33739;DHT22;20063;51.730;11.110;2023-07-30T00:41:08;18.20;99.90
33739;DHT22;20063;51.730;11.110;2023-07-30T00:43:33;18.20;99.90
33739;DHT22;20063;51.730;11.110;2023-07-30T00:45:59;18.10;99.90
33739;DHT22;20063;51.730;11.110;2023-07-30T00:48:24;18.00;99.90
33739;DHT22;20063;51.730;11.110;2023-07-30T00:50:50;18.00;99.90
33739;DHT22;20063;51.730;11.110;2023-07-30T00:53:16;18.00;99.90
33739;DHT22;20063;51.730;11.110;2023-07-30T00:55:43;17.90;99.90
33739;DHT22;20063;51.730;11.110;2023-07-30T00:58:10;17.90;99.90
33739;DHT22;20063;51.730;11.110;2023-07-30T01:00:36;17.90;99.90
33739;DHT22;20063;51.730;11.110;2023-07-30T01:03:04;17.80;99.90
33739;DHT22;20063;51.730;11.110;2023-07-30T01:05:30;17.70;99.90
33739;DHT22;20063;51.730;11.110;2023-07-30T01:07:56;17.70;99.90
33739;DHT22;20063;51.730;11.110;2023-07-30T01:10:22;17.70;99.90
33739;DHT22;20063;51.730;11.110;2023-07-30T01:12:48;17.70;99.90
33739;DHT22;20063;51.730;11.110;2023-07-30T01:15:14;17.70;99.90
33739;DHT22;20063;51.730;11.110;2023-07-30T01:17:40;17.60;99.90
33739;DHT22;20063;51.730;11.110;2023-07-30T01:20:06;17.60;99.90
33739;DHT22;20063;51.730;11.110;2023-07-30T01:22:32;17.50;99.90
33739;DHT22;20063;51.730;11.110;2023-07-30T01:24:58;17.60;99.90
33739;DHT22;20063;51.730;11.110;2023-07-30T01:27:28;17.50;99.90
33739;DHT22;20063;51.730;11.110;2023-07-30T01:32:39;17.40;99.90
33739;DHT22;20063;51.730;11.110;2023-07-30T01:35:07;17.40;99.90
33739;DHT22;20063;51.730;11.110;2023-07-30T01:37:34;17.40;99.90
33739;DHT22;20063;51.730;11.110;2023-07-30T01:40:00;17.40;99.90
33739;DHT22;20063;51.730;11.110;2023-07-30T01:42:31;17.40;99.90
33739;DHT22;20063;51.730;11.110;2023-07-30T01:44:57;17.30;99.90
33739;DHT22;20063;51.730;11.110;2023-07-30T01:47:23;17.30;99.90
33739;DHT22;20063;51.730;11.110;2023-07-30T01:49:48;17.30;99.90
33739;DHT22;20063;51.730;11.110;2023-07-30T01:52:14;17.20;99.90
33739;DHT22;20063;51.730;11.110;2023-07-30T01:54:39;17.20;99.90
33739;DHT22;20063;51.730;11.110;2023-07-30T01:57:05;17.10;99.90
33739;DHT22;20063;51.730;11.110;2023-07-30T01:59:31;17.10;99.90
33739;DHT22;20063;51.730;11.110;2023-07-30T02:01:56;17.00;99.90
33739;DHT22;20063;51.730;11.110;2023-07-30T02:04:22;17.00;99.90
33739;DHT22;20063;51.730;11.110;2023-07-30T02:06:47;16.90;99.90
33739;DHT22;20063;51.730;11.110;2023-07-30T02:09:14;16.90;99.90
33739;DHT22;20063;51.730;11.110;2023-07-30T02:11:39;16.90;99.90
33739;DHT22;20063;51.730;11.110;2023-07-30T02:14:05;16.80;99.90
33739;DHT22;20063;51.730;11.110;2023-07-30T02:16:30;16.70;99.90
33739;DHT22;20063;51.730;11.110;2023-07-30T02:18:56;16.70;99.90
33739;DHT22;20063;51.730;11.110;2023-07-30T02:21:22;16.70;99.90
33739;DHT22;20063;51.730;11.110;2023-07-30T02:23:47;16.60;99.90
33739;DHT22;20063;51.730;11.110;2023-07-30T02:26:13;16.60;99.90
33739;DHT22;20063;51.730;11.110;2023-07-30T02:28:38;16.60;99.90
33739;DHT22;20063;51.730;11.110;2023-07-30T02:31:04;16.60;99.90
33739;DHT22;20063;51.730;11.110;2023-07-30T02:33:29;16.60;99.90
33739;DHT22;20063;51.730;11.110;2023-07-30T02:35:55;16.60;99.90
33739;DHT22;20063;51.730;11.110;2023-07-30T02:38:21;16.50;99.90
33739;DHT22;20063;51.730;11.110;2023-07-30T02:40:46;16.50;99.90
33739;DHT22;20063;51.730;11.110;2023-07-30T02:43:12;16.60;99.90
33739;DHT22;20063;51.730;11.110;2023-07-30T02:45:38;16.60;99.90
33739;DHT22;20063;51.730;11.110;2023-07-30T02:48:04;16.80;99.90
33739;DHT22;20063;51.730;11.110;2023-07-30T02:50:29;17.00;99.90
33739;DHT22;20063;51.730;11.110;2023-07-30T02:52:55;17.10;99.90
33739;DHT22;20063;51.730;11.110;2023-07-30T02:55:21;17.30;99.90
33739;DHT22;20063;51.730;11.110;2023-07-30T02:57:46;17.40;99.90
33739;DHT22;20063;51.730;11.110;2023-07-30T03:00:15;17.40;99.90
33739;DHT22;20063;51.730;11.110;2023-07-30T03:02:41;17.40;99.90
33739;DHT22;20063;51.730;11.110;2023-07-30T03:05:07;17.50;99.90
33739;DHT22;20063;51.730;11.110;2023-07-30T03:07:34;17.50;99.90
33739;DHT22;20063;51.730;11.110;2023-07-30T03:09:59;17.50;99.90
33739;DHT22;20063;51.730;11.110;2023-07-30T03:12:25;17.60;99.90
33739;DHT22;20063;51.730;11.110;2023-07-30T03:14:50;17.70;99.90
33739;DHT22;20063;51.730;11.110;2023-07-30T03:17:16;17.70;99.90
33739;DHT22;20063;51.730;11.110;2023-07-30T03:19:42;17.70;99.90
33739;DHT22;20063;51.730;11.110;2023-07-30T03:22:07;17.70;99.90
33739;DHT22;20063;51.730;11.110;2023-07-30T03:24:33;17.80;99.90
33739;DHT22;20063;51.730;11.110;2023-07-30T03:26:58;17.70;99.90
33739;DHT22;20063;51.730;11.110;2023-07-30T03:29:24;17.70;99.90
33739;DHT22;20063;51.730;11.110;2023-07-30T03:31:50;17.70;99.90
33739;DHT22;20063;51.730;11.110;2023-07-30T03:34:15;17.70;99.90
33739;DHT22;20063;51.730;11.110;2023-07-30T03:36:41;17.70;99.90
33739;DHT22;20063;51.730;11.110;2023-07-30T03:39:06;17.70;99.90
33739;DHT22;20063;51.730;11.110;2023-07-30T03:41:32;17.70;99.90
33739;DHT22;20063;51.730;11.110;2023-07-30T03:43:57;17.70;99.90
33739;DHT22;20063;51.730;11.110;2023-07-30T03:46:23;17.70;99.90
33739;DHT22;20063;51.730;11.110;2023-07-30T03:48:49;17.70;99.90
33739;DHT22;20063;51.730;11.110;2023-07-30T03:51:14;17.70;99.90
33739;DHT22;20063;51.730;11.110;2023-07-30T03:53:40;17.70;99.90
33739;DHT22;20063;51.730;11.110;2023-07-30T03:56:05;17.60;99.90
33739;DHT22;20063;51.730;11.110;2023-07-30T03:58:31;17.60;99.90
33739;DHT22;20063;51.730;11.110;2023-07-30T04:00:57;17.60;99.90
33739;DHT22;20063;51.730;11.110;2023-07-30T04:03:22;17.70;99.90
33739;DHT22;20063;51.730;11.110;2023-07-30T04:05:48;17.70;99.90
33739;DHT22;20063;51.730;11.110;2023-07-30T04:08:13;17.60;99.90
33739;DHT22;20063;51.730;11.110;2023-07-30T04:10:39;17.70;99.90
33739;DHT22;20063;51.730;11.110;2023-07-30T04:13:05;17.60;99.90
33739;DHT22;20063;51.730;11.110;2023-07-30T04:15:34;17.60;99.90
33739;DHT22;20063;51.730;11.110;2023-07-30T04:17:59;17.60;99.90
33739;DHT22;20063;51.730;11.110;2023-07-30T04:20:25;17.60;99.90
33739;DHT22;20063;51.730;11.110;2023-07-30T04:22:51;17.60;99.90
33739;DHT22;20063;51.730;11.110;2023-07-30T04:25:17;17.60;99.90
33739;DHT22;20063;51.730;11.110;2023-07-30T04:27:44;17.60;99.90
33739;DHT22;20063;51.730;11.110;2023-07-30T04:30:10;17.60;99.90
33739;DHT22;20063;51.730;11.110;2023-07-30T04:32:36;17.60;99.90
33739;DHT22;20063;51.730;11.110;2023-07-30T04:35:02;17.60;99.90
33739;DHT22;20063;51.730;11.110;2023-07-30T04:37:28;17.50;99.90
33739;DHT22;20063;51.730;11.110;2023-07-30T04:39:54;17.50;99.90
33739;DHT22;20063;51.730;11.110;2023-07-30T04:42:19;17.50;99.90
33739;DHT22;20063;51.730;11.110;2023-07-30T04:44:45;17.50;99.90
33739;DHT22;20063;51.730;11.110;2023-07-30T04:47:11;17.50;99.90
33739;DHT22;20063;51.730;11.110;2023-07-30T04:49:36;17.50;99.90
33739;DHT22;20063;51.730;11.110;2023-07-30T04:52:06;17.50;99.90
33739;DHT22;20063;51.730;11.110;2023-07-30T04:54:32;17.50;99.90
33739;DHT22;20063;51.730;11.110;2023-07-30T04:56:58;17.50;99.90
33739;DHT22;20063;51.730;11.110;2023-07-30T04:59:23;17.50;99.90
33739;DHT22;20063;51.730;11.110;2023-07-30T05:01:49;17.50;99.90
33739;DHT22;20063;51.730;11.110;2023-07-30T05:04:14;17.60;99.90
33739;DHT22;20063;51.730;11.110;2023-07-30T05:06:40;17.60;99.90
33739;DHT22;20063;51.730;11.110;2023-07-30T05:09:06;17.60;99.90
33739;DHT22;20063;51.730;11.110;2023-07-30T05:11:31;17.60;99.90
33739;DHT22;20063;51.730;11.110;2023-07-30T05:13:57;17.70;99.90
33739;DHT22;20063;51.730;11.110;2023-07-30T05:16:23;17.70;99.90
33739;DHT22;20063;51.730;11.110;2023-07-30T05:18:49;17.80;99.90
33739;DHT22;20063;51.730;11.110;2023-07-30T05:21:15;17.80;99.90
33739;DHT22;20063;51.730;11.110;2023-07-30T05:23:40;17.90;99.90
33739;DHT22;20063;51.730;11.110;2023-07-30T05:26:09;17.90;99.90
33739;DHT22;20063;51.730;11.110;2023-07-30T05:28:34;17.90;99.90
33739;DHT22;20063;51.730;11.110;2023-07-30T05:31:00;18.00;99.90
33739;DHT22;20063;51.730;11.110;2023-07-30T05:33:25;18.00;99.90
33739;DHT22;20063;51.730;11.110;2023-07-30T05:35:51;18.10;99.90
33739;DHT22;20063;51.730;11.110;2023-07-30T05:38:17;18.10;99.90
33739;DHT22;20063;51.730;11.110;2023-07-30T05:40:43;18.00;99.90
33739;DHT22;20063;51.730;11.110;2023-07-30T05:43:09;18.10;99.90
33739;DHT22;20063;51.730;11.110;2023-07-30T05:45:34;18.10;99.90
33739;DHT22;20063;51.730;11.110;2023-07-30T05:48:00;18.10;99.90
33739;DHT22;20063;51.730;11.110;2023-07-30T05:50:26;18.10;99.90
33739;DHT22;20063;51.730;11.110;2023-07-30T05:52:51;18.10;99.90
33739;DHT22;20063;51.730;11.110;2023-07-30T05:55:17;18.10;99.90
33739;DHT22;20063;51.730;11.110;2023-07-30T05:57:43;18.10;99.90
33739;DHT22;20063;51.730;11.110;2023-07-30T06:00:09;18.10;99.90
33739;DHT22;20063;51.730;11.110;2023-07-30T06:02:34;18.10;99.90
33739;DHT22;20063;51.730;11.110;2023-07-30T06:05:00;18.20;99.90
33739;DHT22;20063;51.730;11.110;2023-07-30T06:07:26;18.20;99.90
33739;DHT22;20063;51.730;11.110;2023-07-30T06:09:51;18.20;99.90
33739;DHT22;20063;51.730;11.110;2023-07-30T06:12:17;18.30;99.90
33739;DHT22;20063;51.730;11.110;2023-07-30T06:14:42;18.30;99.90
33739;DHT22;20063;51.730;11.110;2023-07-30T06:17:08;18.30;99.90
33739;DHT22;20063;51.730;11.110;2023-07-30T06:19:34;18.30;99.90
33739;DHT22;20063;51.730;11.110;2023-07-30T06:22:00;18.30;99.90
33739;DHT22;20063;51.730;11.110;2023-07-30T06:24:25;18.30;99.90
33739;DHT22;20063;51.730;11.110;2023-07-30T06:26:51;18.30;99.90
33739;DHT22;20063;51.730;11.110;2023-07-30T06:29:17;18.30;99.90
33739;DHT22;20063;51.730;11.110;2023-07-30T06:31:42;18.30;99.90
33739;DHT22;20063;51.730;11.110;2023-07-30T06:34:08;18.30;99.90
33739;DHT22;20063;51.730;11.110;2023-07-30T06:36:33;18.40;99.90
33739;DHT22;20063;51.730;11.110;2023-07-30T06:38:59;18.40;99.90
33739;DHT22;20063;51.730;11.110;2023-07-30T06:41:25;18.50;99.90
33739;DHT22;20063;51.730;11.110;2023-07-30T06:43:50;18.50;99.90
33739;DHT22;20063;51.730;11.110;2023-07-30T06:46:16;18.60;99.90
33739;DHT22;20063;51.730;11.110;2023-07-30T06:48:41;18.50;99.90
33739;DHT22;20063;51.730;11.110;2023-07-30T06:51:10;18.50;99.90
33739;DHT22;20063;51.730;11.110;2023-07-30T06:53:39;18.60;99.90
33739;DHT22;20063;51.730;11.110;2023-07-30T06:56:05;18.60;99.90
33739;DHT22;20063;51.730;11.110;2023-07-30T06:58:30;18.50;99.90
33739;DHT22;20063;51.730;11.110;2023-07-30T07:00:56;18.60;99.90
33739;DHT22;20063;51.730;11.110;2023-07-30T07:03:22;18.60;99.90
33739;DHT22;20063;51.730;11.110;2023-07-30T07:05:54;18.60;99.90
33739;DHT22;20063;51.730;11.110;2023-07-30T07:08:20;18.70;99.90
33739;DHT22;20063;51.730;11.110;2023-07-30T07:10:46;18.70;99.90
33739;DHT22;20063;51.730;11.110;2023-07-30T07:13:12;18.70;99.90
33739;DHT22;20063;51.730;11.110;2023-07-30T07:15:44;18.70;99.90
33739;DHT22;20063;51.730;11.110;2023-07-30T07:18:09;18.70;99.90
33739;DHT22;20063;51.730;11.110;2023-07-30T07:20:36;18.70;99.90
33739;DHT22;20063;51.730;11.110;2023-07-30T07:23:02;18.80;99.90
33739;DHT22;20063;51.730;11.110;2023-07-30T07:25:28;18.80;99.90
33739;DHT22;20063;51.730;11.110;2023-07-30T07:27:54;18.80;99.90
33739;DHT22;20063;51.730;11.110;2023-07-30T07:30:19;18.80;99.90
33739;DHT22;20063;51.730;11.110;2023-07-30T07:32:45;18.90;99.90
33739;DHT22;20063;51.730;11.110;2023-07-30T07:35:15;18.90;99.90
33739;DHT22;20063;51.730;11.110;2023-07-30T07:37:41;19.00;99.90
33739;DHT22;20063;51.730;11.110;2023-07-30T07:40:07;19.00;99.90
33739;DHT22;20063;51.730;11.110;2023-07-30T07:42:34;19.10;99.90
33739;DHT22;20063;51.730;11.110;2023-07-30T07:45:00;19.20;99.90
33739;DHT22;20063;51.730;11.110;2023-07-30T07:47:26;19.20;99.90
33739;DHT22;20063;51.730;11.110;2023-07-30T07:49:51;19.20;99.90
33739;DHT22;20063;51.730;11.110;2023-07-30T07:52:17;19.20;99.90
33739;DHT22;20063;51.730;11.110;2023-07-30T07:54:42;19.20;99.90
33739;DHT22;20063;51.730;11.110;2023-07-30T07:57:08;19.20;99.90
33739;DHT22;20063;51.730;11.110;2023-07-30T07:59:34;19.30;99.90
33739;DHT22;20063;51.730;11.110;2023-07-30T08:01:59;19.30;99.90
33739;DHT22;20063;51.730;11.110;2023-07-30T08:04:25;19.40;99.90
33739;DHT22;20063;51.730;11.110;2023-07-30T08:06:51;19.40;99.90
33739;DHT22;20063;51.730;11.110;2023-07-30T08:09:16;19.50;99.90
33739;DHT22;20063;51.730;11.110;2023-07-30T08:11:42;19.40;99.90
33739;DHT22;20063;51.730;11.110;2023-07-30T08:14:07;19.40;99.90
33739;DHT22;20063;51.730;11.110;2023-07-30T08:16:33;19.50;99.90
33739;DHT22;20063;51.730;11.110;2023-07-30T08:18:59;19.60;99.90
33739;DHT22;20063;51.730;11.110;2023-07-30T08:21:25;19.70;99.90
33739;DHT22;20063;51.730;11.110;2023-07-30T08:23:51;19.70;99.90
33739;DHT22;20063;51.730;11.110;2023-07-30T08:26:16;19.70;99.90
33739;DHT22;20063;51.730;11.110;2023-07-30T08:28:42;19.80;99.90
33739;DHT22;20063;51.730;11.110;2023-07-30T08:31:07;19.90;99.90
33739;DHT22;20063;51.730;11.110;2023-07-30T08:33:33;19.90;99.90
33739;DHT22;20063;51.730;11.110;2023-07-30T08:36:03;19.90;99.90
33739;DHT22;20063;51.730;11.110;2023-07-30T08:38:29;19.90;99.90
33739;DHT22;20063;51.730;11.110;2023-07-30T08:40:55;19.80;99.90
33739;DHT22;20063;51.730;11.110;2023-07-30T08:43:21;19.90;99.90
33739;DHT22;20063;51.730;11.110;2023-07-30T08:45:46;19.80;99.90
33739;DHT22;20063;51.730;11.110;2023-07-30T08:48:13;19.80;99.90
33739;DHT22;20063;51.730;11.110;2023-07-30T08:50:39;19.70;99.90
33739;DHT22;20063;51.730;11.110;2023-07-30T08:53:05;19.60;99.90
33739;DHT22;20063;51.730;11.110;2023-07-30T08:55:33;19.60;99.90
33739;DHT22;20063;51.730;11.110;2023-07-30T08:58:01;19.50;99.90
33739;DHT22;20063;51.730;11.110;2023-07-30T09:00:31;19.40;99.90
33739;DHT22;20063;51.730;11.110;2023-07-30T09:03:03;19.50;99.90
33739;DHT22;20063;51.730;11.110;2023-07-30T09:05:30;19.60;99.90
33739;DHT22;20063;51.730;11.110;2023-07-30T09:07:57;19.60;99.90
33739;DHT22;20063;51.730;11.110;2023-07-30T09:10:23;19.70;99.90
33739;DHT22;20063;51.730;11.110;2023-07-30T09:12:56;19.70;99.90
33739;DHT22;20063;51.730;11.110;2023-07-30T09:17:57;19.80;99.90
33739;DHT22;20063;51.730;11.110;2023-07-30T09:20:23;19.80;99.90
33739;DHT22;20063;51.730;11.110;2023-07-30T09:22:49;19.80;99.90
33739;DHT22;20063;51.730;11.110;2023-07-30T09:25:18;19.80;99.90
33739;DHT22;20063;51.730;11.110;2023-07-30T09:27:50;19.80;99.90
33739;DHT22;20063;51.730;11.110;2023-07-30T09:30:22;20.00;99.90
33739;DHT22;20063;51.730;11.110;2023-07-30T09:32:52;20.00;99.90
33739;DHT22;20063;51.730;11.110;2023-07-30T09:35:18;20.00;99.90
33739;DHT22;20063;51.730;11.110;2023-07-30T09:37:44;20.00;99.90
33739;DHT22;20063;51.730;11.110;2023-07-30T09:40:12;20.10;99.90
33739;DHT22;20063;51.730;11.110;2023-07-30T09:42:38;20.10;99.90
33739;DHT22;20063;51.730;11.110;2023-07-30T09:45:08;20.30;99.90
33739;DHT22;20063;51.730;11.110;2023-07-30T09:47:33;20.30;99.90
33739;DHT22;20063;51.730;11.110;2023-07-30T09:50:02;20.30;99.90
33739;DHT22;20063;51.730;11.110;2023-07-30T09:52:29;20.40;99.90
33739;DHT22;20063;51.730;11.110;2023-07-30T09:54:57;20.40;99.90
33739;DHT22;20063;51.730;11.110;2023-07-30T09:57:23;20.40;99.90
33739;DHT22;20063;51.730;11.110;2023-07-30T09:59:48;20.40;99.90
33739;DHT22;20063;51.730;11.110;2023-07-30T10:02:15;20.40;99.90
33739;DHT22;20063;51.730;11.110;2023-07-30T10:04:43;20.40;99.90
33739;DHT22;20063;51.730;11.110;2023-07-30T10:07:20;20.40;99.90
33739;DHT22;20063;51.730;11.110;2023-07-30T10:09:48;20.30;99.90
33739;DHT22;20063;51.730;11.110;2023-07-30T10:12:17;20.40;99.90
33739;DHT22;20063;51.730;11.110;2023-07-30T10:14:56;20.50;99.90
33739;DHT22;20063;51.730;11.110;2023-07-30T10:17:22;20.50;99.90
33739;DHT22;20063;51.730;11.110;2023-07-30T10:19:49;20.60;99.90
33739;DHT22;20063;51.730;11.110;2023-07-30T10:24:59;20.70;99.90
33739;DHT22;20063;51.730;11.110;2023-07-30T10:27:29;20.90;99.90
33739;DHT22;20063;51.730;11.110;2023-07-30T10:30:10;21.00;99.90
33739;DHT22;20063;51.730;11.110;2023-07-30T10:32:41;21.00;99.90
33739;DHT22;20063;51.730;11.110;2023-07-30T10:35:07;21.00;99.90
33739;DHT22;20063;51.730;11.110;2023-07-30T10:37:32;21.00;99.90
33739;DHT22;20063;51.730;11.110;2023-07-30T10:39:58;21.00;99.90
33739;DHT22;20063;51.730;11.110;2023-07-30T10:42:33;21.00;99.90
33739;DHT22;20063;51.730;11.110;2023-07-30T10:45:00;21.00;99.90
33739;DHT22;20063;51.730;11.110;2023-07-30T10:47:29;21.00;99.90
33739;DHT22;20063;51.730;11.110;2023-07-30T10:50:01;21.00;99.90
33739;DHT22;20063;51.730;11.110;2023-07-30T10:52:26;21.00;99.90
33739;DHT22;20063;51.730;11.110;2023-07-30T10:55:00;20.90;99.90
33739;DHT22;20063;51.730;11.110;2023-07-30T10:57:30;20.90;99.90
33739;DHT22;20063;51.730;11.110;2023-07-30T10:59:58;20.80;99.90
33739;DHT22;20063;51.730;11.110;2023-07-30T11:02:24;20.80;99.90
33739;DHT22;20063;51.730;11.110;2023-07-30T11:04:49;20.80;99.90
33739;DHT22;20063;51.730;11.110;2023-07-30T11:07:17;20.80;99.90
33739;DHT22;20063;51.730;11.110;2023-07-30T11:09:44;20.80;99.90
33739;DHT22;20063;51.730;11.110;2023-07-30T11:12:09;20.80;99.90
33739;DHT22;20063;51.730;11.110;2023-07-30T11:14:36;20.80;99.90
33739;DHT22;20063;51.730;11.110;2023-07-30T11:17:01;20.80;99.90
33739;DHT22;20063;51.730;11.110;2023-07-30T11:19:29;20.80;99.90
33739;DHT22;20063;51.730;11.110;2023-07-30T11:21:56;20.70;99.90
33739;DHT22;20063;51.730;11.110;2023-07-30T11:24:23;20.70;99.90
33739;DHT22;20063;51.730;11.110;2023-07-30T11:27:02;20.60;99.90
33739;DHT22;20063;51.730;11.110;2023-07-30T11:29:28;20.60;99.90
33739;DHT22;20063;51.730;11.110;2023-07-30T11:31:58;20.60;99.90
33739;DHT22;20063;51.730;11.110;2023-07-30T11:34:24;20.50;99.90
33739;DHT22;20063;51.730;11.110;2023-07-30T11:36:51;20.40;99.90
33739;DHT22;20063;51.730;11.110;2023-07-30T11:39:17;20.40;99.90
33739;DHT22;20063;51.730;11.110;2023-07-30T11:41:43;20.30;99.90
33739;DHT22;20063;51.730;11.110;2023-07-30T11:44:31;20.30;99.90
33739;DHT22;20063;51.730;11.110;2023-07-30T11:46:57;20.10;99.90
33739;DHT22;20063;51.730;11.110;2023-07-30T11:49:22;20.00;99.90
33739;DHT22;20063;51.730;11.110;2023-07-30T11:51:48;19.90;99.90
33739;DHT22;20063;51.730;11.110;2023-07-30T11:54:22;19.90;99.90
33739;DHT22;20063;51.730;11.110;2023-07-30T11:56:54;19.80;99.90
33739;DHT22;20063;51.730;11.110;2023-07-30T11:59:21;19.80;99.90
33739;DHT22;20063;51.730;11.110;2023-07-30T12:01:50;19.70;99.90
33739;DHT22;20063;51.730;11.110;2023-07-30T12:04:22;19.70;99.90
33739;DHT22;20063;51.730;11.110;2023-07-30T12:06:51;19.70;99.90
33739;DHT22;20063;51.730;11.110;2023-07-30T12:09:22;19.70;99.90
33739;DHT22;20063;51.730;11.110;2023-07-30T12:11:54;19.70;99.90
33739;DHT22;20063;51.730;11.110;2023-07-30T12:14:26;19.70;99.90
33739;DHT22;20063;51.730;11.110;2023-07-30T12:16:56;19.70;99.90
33739;DHT22;20063;51.730;11.110;2023-07-30T12:19:21;19.70;99.90
33739;DHT22;20063;51.730;11.110;2023-07-30T12:21:47;19.80;99.90
33739;DHT22;20063;51.730;11.110;2023-07-30T12:24:13;19.80;99.90
33739;DHT22;20063;51.730;11.110;2023-07-30T12:26:38;19.70;99.90
33739;DHT22;20063;51.730;11.110;2023-07-30T12:29:04;19.60;99.90
33739;DHT22;20063;51.730;11.110;2023-07-30T12:31:29;19.70;99.90
33739;DHT22;20063;51.730;11.110;2023-07-30T12:33:55;19.60;99.90
33739;DHT22;20063;51.730;11.110;2023-07-30T12:36:21;19.70;99.90
33739;DHT22;20063;51.730;11.110;2023-07-30T12:38:46;19.60;99.90
33739;DHT22;20063;51.730;11.110;2023-07-30T12:41:12;19.60;99.90
33739;DHT22;20063;51.730;11.110;2023-07-30T12:43:38;19.60;99.90
33739;DHT22;20063;51.730;11.110;2023-07-30T12:46:03;19.50;99.90
33739;DHT22;20063;51.730;11.110;2023-07-30T12:48:29;19.40;99.90
33739;DHT22;20063;51.730;11.110;2023-07-30T12:50:54;19.40;99.90
33739;DHT22;20063;51.730;11.110;2023-07-30T12:53:20;19.30;99.90
33739;DHT22;20063;51.730;11.110;2023-07-30T12:55:46;19.10;99.90
33739;DHT22;20063;51.730;11.110;2023-07-30T12:58:11;19.00;99.90
33739;DHT22;20063;51.730;11.110;2023-07-30T13:00:37;18.80;99.90
33739;DHT22;20063;51.730;11.110;2023-07-30T13:03:02;18.80;99.90
33739;DHT22;20063;51.730;11.110;2023-07-30T13:05:28;18.80;99.90
33739;DHT22;20063;51.730;11.110;2023-07-30T13:07:54;18.70;99.90
33739;DHT22;20063;51.730;11.110;2023-07-30T13:10:20;18.70;99.90
33739;DHT22;20063;51.730;11.110;2023-07-30T13:12:57;18.70;99.90
33739;DHT22;20063;51.730;11.110;2023-07-30T13:15:23;18.70;99.90
33739;DHT22;20063;51.730;11.110;2023-07-30T13:17:50;18.80;99.90
33739;DHT22;20063;51.730;11.110;2023-07-30T13:20:16;18.80;99.90
33739;DHT22;20063;51.730;11.110;2023-07-30T13:22:41;18.80;99.90
33739;DHT22;20063;51.730;11.110;2023-07-30T13:25:07;18.80;99.90
33739;DHT22;20063;51.730;11.110;2023-07-30T13:27:33;18.80;99.90
33739;DHT22;20063;51.730;11.110;2023-07-30T13:29:59;18.90;99.90
33739;DHT22;20063;51.730;11.110;2023-07-30T13:32:25;19.00;99.90
33739;DHT22;20063;51.730;11.110;2023-07-30T13:34:50;19.00;99.90
33739;DHT22;20063;51.730;11.110;2023-07-30T13:37:16;19.10;99.90
33739;DHT22;20063;51.730;11.110;2023-07-30T13:39:41;19.10;99.90
33739;DHT22;20063;51.730;11.110;2023-07-30T13:42:07;19.10;99.90
33739;DHT22;20063;51.730;11.110;2023-07-30T13:44:32;19.20;99.90
33739;DHT22;20063;51.730;11.110;2023-07-30T13:46:58;19.20;99.90
33739;DHT22;20063;51.730;11.110;2023-07-30T13:49:24;19.40;99.90
33739;DHT22;20063;51.730;11.110;2023-07-30T13:51:49;19.60;99.90
33739;DHT22;20063;51.730;11.110;2023-07-30T13:54:15;19.80;99.90
33739;DHT22;20063;51.730;11.110;2023-07-30T13:56:40;20.00;99.90
33739;DHT22;20063;51.730;11.110;2023-07-30T13:59:06;20.20;99.90
33739;DHT22;20063;51.730;11.110;2023-07-30T14:01:32;20.30;99.90
33739;DHT22;20063;51.730;11.110;2023-07-30T14:03:57;20.10;99.90
33739;DHT22;20063;51.730;11.110;2023-07-30T14:06:23;20.10;99.90
33739;DHT22;20063;51.730;11.110;2023-07-30T14:08:49;20.10;99.90
33739;DHT22;20063;51.730;11.110;2023-07-30T14:11:15;20.00;99.90
33739;DHT22;20063;51.730;11.110;2023-07-30T14:13:40;20.00;99.90
33739;DHT22;20063;51.730;11.110;2023-07-30T14:16:06;19.80;99.90
33739;DHT22;20063;51.730;11.110;2023-07-30T14:18:32;19.70;99.90
33739;DHT22;20063;51.730;11.110;2023-07-30T14:20:58;19.80;99.90
33739;DHT22;20063;51.730;11.110;2023-07-30T14:23:24;19.80;99.90
33739;DHT22;20063;51.730;11.110;2023-07-30T14:25:50;19.70;99.90
33739;DHT22;20063;51.730;11.110;2023-07-30T14:28:15;19.80;99.90
33739;DHT22;20063;51.730;11.110;2023-07-30T14:30:41;19.90;99.90
33739;DHT22;20063;51.730;11.110;2023-07-30T14:33:10;20.00;99.90
33739;DHT22;20063;51.730;11.110;2023-07-30T14:35:36;20.10;99.90
33739;DHT22;20063;51.730;11.110;2023-07-30T14:38:04;20.10;99.90
33739;DHT22;20063;51.730;11.110;2023-07-30T14:40:30;20.20;99.90
33739;DHT22;20063;51.730;11.110;2023-07-30T14:42:56;20.30;99.90
33739;DHT22;20063;51.730;11.110;2023-07-30T14:45:21;20.40;99.90
33739;DHT22;20063;51.730;11.110;2023-07-30T14:47:47;20.60;99.90
33739;DHT22;20063;51.730;11.110;2023-07-30T14:50:13;20.70;99.90
33739;DHT22;20063;51.730;11.110;2023-07-30T14:52:40;20.70;99.90
33739;DHT22;20063;51.730;11.110;2023-07-30T14:55:05;20.80;99.90
33739;DHT22;20063;51.730;11.110;2023-07-30T14:57:31;20.90;99.90
33739;DHT22;20063;51.730;11.110;2023-07-30T14:59:58;21.00;99.90
33739;DHT22;20063;51.730;11.110;2023-07-30T15:02:26;21.00;99.90
33739;DHT22;20063;51.730;11.110;2023-07-30T15:04:52;21.10;99.90
33739;DHT22;20063;51.730;11.110;2023-07-30T15:07:18;21.10;99.90
33739;DHT22;20063;51.730;11.110;2023-07-30T15:09:43;21.20;99.90
33739;DHT22;20063;51.730;11.110;2023-07-30T15:12:11;21.20;99.90
33739;DHT22;20063;51.730;11.110;2023-07-30T15:14:36;21.20;99.90
33739;DHT22;20063;51.730;11.110;2023-07-30T15:17:05;21.30;99.90
33739;DHT22;20063;51.730;11.110;2023-07-30T15:19:31;21.30;99.90